Time;durP1;ratioP1;P1;durP2;ratioP2;P2;SDS_P1;SDS_P2;PMS_P1;PMS_P2;Temp;Humidity;BMP_temperature;BMP_pressure;BME280_temperature;BME280_humidity;BME280_pressure;Samples;Min_cycle;Max_cycle;Signal;HPM_P1;HPM_P2
2023/05/09 00:02:12;;;;;;;3.97;1.60;;;;;;;15.63;35.88;100341.97;4485607;31;33467;-63
2023/05/09 00:04:40;;;;;;;2.72;1.62;;;;;;;15.64;35.86;100343.69;4487701;31;34755;-64
2023/05/09 00:07:09;;;;;;;2.95;1.92;;;;;;;15.63;35.77;100341.97;4491630;31;34112;-63
2023/05/09 00:09:36;;;;;;;3.45;1.42;;;;;;;15.34;35.72;100343.50;4489210;31;33185;-63
2023/05/09 00:12:04;;;;;;;2.50;1.50;;;;;;;15.51;35.65;100338.50;4489441;31;34818;-61
2023/05/09 00:14:32;;;;;;;3.28;1.90;;;;;;;15.60;35.82;100338.56;4485493;31;33459;-62
2023/05/09 00:16:59;;;;;;;2.47;1.58;;;;;;;15.55;36.00;100332.69;4488718;31;33603;-62
2023/05/09 00:19:27;;;;;;;1.83;1.25;;;;;;;15.62;36.02;100338.41;4490541;31;33630;-62
2023/05/09 00:21:55;;;;;;;1.95;1.45;;;;;;;15.47;36.14;100337.03;4489880;31;33408;-63
2023/05/09 00:24:22;;;;;;;5.20;2.37;;;;;;;15.43;36.42;100332.88;4489956;31;34815;-62
2023/05/09 00:26:50;;;;;;;2.60;1.45;;;;;;;15.32;36.83;100331.13;4488970;31;34311;-61
2023/05/09 00:29:18;;;;;;;2.55;1.67;;;;;;;15.28;36.76;100332.34;4488317;31;34693;-64
2023/05/09 00:31:46;;;;;;;3.12;1.25;;;;;;;15.48;36.41;100328.81;4487173;31;33847;-65
2023/05/09 00:34:14;;;;;;;2.58;1.50;;;;;;;15.46;36.82;100328.09;4492645;31;34192;-63
2023/05/09 00:36:41;;;;;;;2.17;1.45;;;;;;;15.31;37.44;100324.00;4485270;31;34631;-65
2023/05/09 00:39:09;;;;;;;2.90;1.80;;;;;;;15.39;37.37;100326.91;4489224;31;33315;-65
2023/05/09 00:41:36;;;;;;;2.35;1.45;;;;;;;15.18;37.40;100324.19;4484012;31;34979;-66
2023/05/09 00:44:04;;;;;;;1.67;1.30;;;;;;;15.33;37.54;100320.19;4482948;31;34953;-61
2023/05/09 00:46:32;;;;;;;2.30;1.37;;;;;;;15.41;36.83;100319.56;4481476;31;33688;-62
2023/05/09 00:48:59;;;;;;;2.20;1.55;;;;;;;15.36;37.21;100325.31;4486116;31;34556;-64
2023/05/09 00:51:27;;;;;;;2.17;1.45;;;;;;;14.98;37.92;100320.47;4490008;31;33939;-70
2023/05/09 00:53:55;;;;;;;1.98;1.27;;;;;;;15.17;37.05;100321.63;4495394;31;33610;-63
2023/05/09 00:56:23;;;;;;;2.00;1.62;;;;;;;15.25;36.66;100314.63;4485058;31;33150;-63
2023/05/09 00:58:50;;;;;;;2.30;1.62;;;;;;;15.21;36.71;100315.84;4483821;31;32183;-62
2023/05/09 01:01:18;;;;;;;3.30;1.15;;;;;;;15.04;36.34;100319.97;4484713;31;35206;-63
2023/05/09 01:03:46;;;;;;;4.47;2.10;;;;;;;14.80;36.74;100311.22;4496249;31;34054;-63
2023/05/09 01:06:21;;;;;;;2.28;1.33;;;;;;;14.60;37.43;100307.50;4487116;31;33462;-64
2023/05/09 01:08:55;;;;;;;;;;;;;;;14.32;37.47;100314.28;4487694;31;32125;-64
2023/05/09 01:11:29;;;;;;;4.03;1.60;;;;;;;14.43;37.47;100312.41;4487712;31;33885;-64
2023/05/09 01:14:06;;;;;;;3.03;1.52;;;;;;;13.94;38.72;100321.78;4483002;31;33851;-63
2023/05/09 01:17:02;;;;;;;2.28;1.35;;;;;;;14.18;38.40;100324.31;4484724;31;33927;-62
2023/05/09 01:19:49;;;;;;;2.65;1.73;;;;;;;14.36;37.97;100318.44;4478166;31;32380;-63
2023/05/09 01:22:18;;;;;;;1.87;1.30;;;;;;;14.48;37.97;100314.75;4490501;31;35219;-63
2023/05/09 01:24:52;;;;;;;1.37;1.23;;;;;;;14.57;38.15;100314.00;4482364;31;33729;-63
2023/05/09 01:27:56;;;;;;;1.87;1.25;;;;;;;14.60;38.98;100316.44;4486990;31;34028;-64
2023/05/09 01:30:25;;;;;;;4.22;1.80;;;;;;;14.11;39.37;100323.09;4485901;31;33344;-65
2023/05/09 01:32:56;;;;;;;2.28;1.15;;;;;;;14.55;38.18;100315.13;4494422;31;33673;-63
2023/05/09 01:35:25;;;;;;;2.85;1.48;;;;;;;14.78;37.61;100310.53;4492424;31;35170;-65
2023/05/09 01:37:53;;;;;;;1.87;1.35;;;;;;;14.84;37.50;100310.88;4486063;31;33536;-64
2023/05/09 01:40:22;;;;;;;2.72;1.62;;;;;;;14.83;37.14;100313.69;4494783;31;32947;-63
2023/05/09 01:43:11;;;;;;;2.20;1.12;;;;;;;14.69;37.32;100295.97;4481913;31;33933;-63
2023/05/09 01:45:40;;;;;;;1.05;1.00;;;;;;;14.79;37.37;100302.31;4488090;31;33751;-64
2023/05/09 01:48:08;;;;;;;1.45;1.33;;;;;;;14.78;37.74;100305.13;4485589;31;33877;-64
2023/05/09 01:50:36;;;;;;;3.00;2.03;;;;;;;14.76;37.98;100307.09;4492048;31;33179;-63
2023/05/09 01:53:05;;;;;;;1.40;0.70;;;;;;;14.66;38.00;100297.06;4487322;31;34938;-64
2023/05/09 01:55:35;;;;;;;0.85;0.85;;;;;;;14.61;37.84;100293.94;4486693;31;34791;-64
2023/05/09 01:58:04;;;;;;;1.80;0.85;;;;;;;14.48;38.11;100295.91;4481552;31;33654;-61
2023/05/09 02:00:35;;;;;;;2.60;1.55;;;;;;;14.50;38.39;100296.59;4488369;31;33294;-63
2023/05/09 02:03:04;;;;;;;3.45;1.70;;;;;;;14.42;38.49;100299.94;4489596;31;33615;-63
2023/05/09 02:05:32;;;;;;;2.90;2.50;;;;;;;14.40;38.63;100291.13;4493007;31;33519;-62
2023/05/09 02:08:00;;;;;;;2.75;1.95;;;;;;;14.18;39.26;100296.53;4484656;31;37557;-63
2023/05/09 02:10:27;;;;;;;4.10;1.50;;;;;;;14.27;39.06;100293.09;4486761;31;33555;-61
2023/05/09 02:12:56;;;;;;;1.85;1.30;;;;;;;14.26;39.06;100291.41;4491292;31;33982;-62
2023/05/09 02:15:23;;;;;;;3.70;1.42;;;;;;;14.26;39.02;100288.72;4483231;31;33887;-62
2023/05/09 02:17:51;;;;;;;1.95;1.48;;;;;;;14.18;39.24;100281.25;4492567;31;33840;-62
2023/05/09 02:20:19;;;;;;;1.90;1.50;;;;;;;14.07;39.32;100289.34;4486036;31;31984;-64
2023/05/09 02:22:47;;;;;;;2.62;1.95;;;;;;;14.05;39.20;100287.75;4491269;31;33748;-62
2023/05/09 02:25:15;;;;;;;0.95;0.95;;;;;;;13.89;39.50;100285.44;4490815;31;34026;-62
2023/05/09 02:27:45;;;;;;;1.55;1.25;;;;;;;13.83;39.92;100288.63;4477608;31;33406;-61
2023/05/09 02:30:24;;;;;;;3.53;1.67;;;;;;;13.38;40.87;100284.03;4480989;31;34463;-62
2023/05/09 02:33:05;;;;;;;3.30;0.88;;;;;;;13.33;41.08;100286.25;4485390;31;33735;-62
2023/05/09 02:35:33;;;;;;;2.55;1.73;;;;;;;13.30;41.00;100278.44;4490430;31;34016;-62
2023/05/09 02:38:01;;;;;;;2.53;1.50;;;;;;;12.44;42.75;100284.03;4485631;31;33630;-62
2023/05/09 02:40:29;;;;;;;4.30;1.67;;;;;;;13.01;41.60;100280.63;4495912;31;33140;-61
2023/05/09 02:42:56;;;;;;;2.87;1.73;;;;;;;13.08;41.24;100275.66;4489623;31;33662;-61
2023/05/09 02:45:25;;;;;;;2.97;1.55;;;;;;;12.80;41.86;100281.28;4497885;31;33979;-62
2023/05/09 02:47:52;;;;;;;1.98;1.67;;;;;;;13.01;41.70;100291.37;4484873;31;33651;-62
2023/05/09 02:50:20;;;;;;;2.00;1.25;;;;;;;12.86;42.04;100279.12;4488571;31;33243;-62
2023/05/09 02:52:48;;;;;;;2.65;1.75;;;;;;;13.21;41.45;100277.25;4491828;31;34860;-62
2023/05/09 02:55:15;;;;;;;3.53;1.83;;;;;;;13.16;41.62;100273.22;4494760;31;34113;-64
2023/05/09 02:57:43;;;;;;;2.03;1.45;;;;;;;13.25;41.27;100275.22;4488324;31;33551;-62
2023/05/09 03:00:11;;;;;;;1.80;1.30;;;;;;;13.01;41.80;100275.25;4494274;31;34421;-64
2023/05/09 03:02:39;;;;;;;2.80;1.52;;;;;;;13.04;41.85;100277.72;4489438;31;34537;-61
2023/05/09 03:05:07;;;;;;;1.90;1.27;;;;;;;13.24;41.23;100274.37;4490448;31;32920;-62
2023/05/09 03:07:35;;;;;;;2.62;1.73;;;;;;;12.94;42.40;100282.94;4491266;31;35490;-61
2023/05/09 03:10:03;;;;;;;2.67;1.73;;;;;;;12.76;42.59;100279.81;4486831;31;34568;-63
2023/05/09 03:12:31;;;;;;;2.50;1.87;;;;;;;13.05;41.82;100268.69;4488513;31;33872;-61
2023/05/09 03:15:00;;;;;;;1.92;1.35;;;;;;;13.00;42.00;100270.84;4497246;31;34970;-64
2023/05/09 03:17:27;;;;;;;5.60;1.35;;;;;;;13.04;41.58;100275.03;4483212;31;34672;-64
2023/05/09 03:19:55;;;;;;;3.87;1.65;;;;;;;13.00;41.74;100266.34;4486864;31;33457;-62
2023/05/09 03:22:23;;;;;;;2.28;1.73;;;;;;;13.03;41.82;100263.44;4489536;31;34640;-62
2023/05/09 03:24:51;;;;;;;3.42;1.92;;;;;;;12.90;41.92;100268.00;4492405;31;34554;-61
2023/05/09 03:27:18;;;;;;;1.62;1.33;;;;;;;12.59;42.53;100273.03;4487401;31;32825;-62
2023/05/09 03:29:46;;;;;;;4.00;1.98;;;;;;;12.95;41.79;100273.03;4491562;31;32454;-64
2023/05/09 03:32:14;;;;;;;1.92;1.73;;;;;;;12.63;42.29;100270.97;4491659;31;33739;-61
2023/05/09 03:34:42;;;;;;;1.65;1.45;;;;;;;12.87;41.86;100276.28;4484867;31;33814;-63
2023/05/09 03:37:10;;;;;;;1.30;1.20;;;;;;;12.73;42.31;100277.34;4493782;31;33691;-64
2023/05/09 03:39:38;;;;;;;1.65;1.12;;;;;;;12.62;42.42;100277.31;4485946;31;32192;-62
2023/05/09 03:42:05;;;;;;;1.55;0.85;;;;;;;12.87;42.30;100275.44;4491643;31;33640;-63
2023/05/09 03:44:33;;;;;;;2.58;1.70;;;;;;;12.89;42.17;100286.94;4496608;31;37312;-61
2023/05/09 03:47:00;;;;;;;1.67;1.48;;;;;;;12.96;41.85;100285.50;4492038;31;33841;-62
2023/05/09 03:49:30;;;;;;;3.10;2.20;;;;;;;12.97;41.75;100280.03;4488919;31;33502;-62
2023/05/09 03:51:58;;;;;;;2.92;1.37;;;;;;;13.08;41.67;100284.56;4496418;31;33634;-61
2023/05/09 03:54:26;;;;;;;3.00;1.37;;;;;;;13.07;42.23;100284.69;4479014;31;33811;-62
2023/05/09 03:56:54;;;;;;;5.57;1.65;;;;;;;13.26;42.09;100275.13;4492101;31;33732;-63
2023/05/09 03:59:22;;;;;;;2.65;2.00;;;;;;;13.40;42.43;100282.09;4479842;31;31758;-61
2023/05/09 04:01:50;;;;;;;2.80;1.55;;;;;;;13.18;44.19;100285.56;4488686;31;33997;-63
2023/05/09 04:04:18;;;;;;;6.45;1.55;;;;;;;13.54;42.88;100290.91;4491186;31;34794;-62
2023/05/09 04:06:46;;;;;;;3.50;1.83;;;;;;;13.49;43.21;100278.69;4491363;31;32780;-61
2023/05/09 04:09:15;;;;;;;1.77;1.37;;;;;;;13.70;42.80;100278.81;4493576;31;31877;-62
2023/05/09 04:11:42;;;;;;;3.62;1.87;;;;;;;13.45;43.14;100279.94;4491532;31;34502;-60
2023/05/09 04:14:10;;;;;;;2.55;1.95;;;;;;;13.86;40.91;100283.00;4493279;31;33912;-63
2023/05/09 04:16:37;;;;;;;2.40;1.52;;;;;;;13.93;41.45;100289.59;4493687;31;33649;-63
2023/05/09 04:19:06;;;;;;;1.45;1.00;;;;;;;13.66;41.46;100290.81;4491357;31;34119;-61
2023/05/09 04:21:34;;;;;;;4.22;2.17;;;;;;;13.19;41.94;100281.91;4495388;31;33926;-61
2023/05/09 04:24:02;;;;;;;3.00;1.65;;;;;;;12.98;41.68;100286.25;4489191;31;35180;-61
2023/05/09 04:26:31;;;;;;;2.50;1.45;;;;;;;13.10;41.27;100292.50;4491321;31;33514;-61
2023/05/09 04:28:59;;;;;;;1.10;0.77;;;;;;;12.92;41.85;100286.72;4490182;31;32601;-62
2023/05/09 04:31:27;;;;;;;4.32;1.87;;;;;;;12.71;42.12;100292.75;4489568;31;35089;-61
2023/05/09 04:33:57;;;;;;;11.57;1.52;;;;;;;12.77;42.68;100297.63;4491245;31;34923;-61
2023/05/09 04:36:26;;;;;;;1.83;1.15;;;;;;;13.11;41.37;100283.47;4484842;31;33957;-61
2023/05/09 04:38:55;;;;;;;4.00;2.70;;;;;;;12.32;43.18;100292.00;4492077;31;33634;-61
2023/05/09 04:41:23;;;;;;;1.75;1.33;;;;;;;12.54;42.78;100295.81;4488731;31;33801;-61
2023/05/09 04:43:51;;;;;;;1.75;1.12;;;;;;;12.62;42.75;100289.88;4489714;31;34053;-61
2023/05/09 04:46:19;;;;;;;2.33;1.60;;;;;;;12.68;42.25;100297.47;4490531;31;33629;-60
2023/05/09 04:48:46;;;;;;;1.55;1.30;;;;;;;12.03;44.00;100304.00;4480037;31;33307;-60
2023/05/09 04:51:14;;;;;;;5.07;1.98;;;;;;;11.81;44.04;100294.81;4482680;31;36199;-61
2023/05/09 04:53:41;;;;;;;1.45;1.17;;;;;;;11.81;43.97;100293.91;4485264;31;33260;-60
2023/05/09 04:56:09;;;;;;;2.10;1.90;;;;;;;12.24;43.48;100294.41;4489199;31;35431;-60
2023/05/09 04:58:37;;;;;;;1.95;1.05;;;;;;;12.05;43.23;100297.56;4485657;31;33443;-60
2023/05/09 05:01:05;;;;;;;1.05;1.05;;;;;;;12.13;43.60;100291.63;4481817;31;35002;-61
2023/05/09 05:03:33;;;;;;;2.92;1.25;;;;;;;12.45;43.21;100302.69;4485885;31;33970;-61
2023/05/09 05:06:01;;;;;;;1.15;0.93;;;;;;;12.32;42.86;100302.75;4490100;31;33974;-61
2023/05/09 05:08:28;;;;;;;1.08;0.80;;;;;;;12.59;42.83;100304.41;4493777;31;34351;-61
2023/05/09 05:10:56;;;;;;;2.65;1.05;;;;;;;13.17;41.84;100310.75;4490729;31;33243;-61
2023/05/09 05:13:24;;;;;;;1.98;1.10;;;;;;;12.99;41.96;100304.91;4484322;31;33668;-62
2023/05/09 05:15:52;;;;;;;1.30;0.85;;;;;;;13.09;41.76;100305.06;4491242;31;33478;-63
2023/05/09 05:18:20;;;;;;;2.08;1.15;;;;;;;13.44;41.17;100312.28;4494988;31;33093;-62
2023/05/09 05:20:48;;;;;;;3.47;1.33;;;;;;;13.14;41.28;100307.44;4497956;31;32801;-62
2023/05/09 05:23:17;;;;;;;1.73;1.35;;;;;;;13.61;40.94;100305.59;4493560;31;34849;-62
2023/05/09 05:25:44;;;;;;;2.62;1.58;;;;;;;13.26;41.30;100309.22;4498015;31;33321;-63
2023/05/09 05:28:12;;;;;;;2.60;1.70;;;;;;;13.21;41.48;100314.91;4491582;31;32362;-62
2023/05/09 05:30:40;;;;;;;1.65;0.85;;;;;;;14.07;40.08;100318.09;4491031;31;34162;-65
2023/05/09 05:33:08;;;;;;;3.15;1.75;;;;;;;14.19;39.09;100314.44;4493923;31;33638;-62
2023/05/09 05:35:36;;;;;;;2.33;1.58;;;;;;;13.55;40.50;100308.75;4495029;31;33818;-62
2023/05/09 05:38:03;;;;;;;3.15;1.55;;;;;;;13.96;39.81;100313.56;4488496;31;34325;-64
2023/05/09 05:40:31;;;;;;;3.70;1.65;;;;;;;13.66;40.49;100312.34;4492165;31;32594;-63
2023/05/09 05:43:00;;;;;;;1.12;0.77;;;;;;;13.79;40.95;100312.22;4487586;31;34708;-62
2023/05/09 05:45:29;;;;;;;1.70;1.05;;;;;;;14.43;39.88;100298.09;4492200;31;33908;-64
2023/05/09 05:47:57;;;;;;;3.25;1.80;;;;;;;14.25;39.23;100297.75;4483482;31;34576;-62
2023/05/09 05:50:24;;;;;;;1.85;1.10;;;;;;;14.06;40.02;100311.00;4494879;31;32614;-65
2023/05/09 05:52:52;;;;;;;1.27;1.00;;;;;;;13.80;40.02;100308.53;4487331;31;35265;-62
2023/05/09 05:55:19;;;;;;;2.67;1.10;;;;;;;13.15;41.75;100314.50;4488182;31;32735;-64
2023/05/09 05:57:47;;;;;;;0.73;0.70;;;;;;;13.55;40.84;100304.25;4493655;31;32034;-64
2023/05/09 06:00:15;;;;;;;1.48;0.88;;;;;;;14.05;40.44;100311.97;4486507;31;33951;-65
2023/05/09 06:02:44;;;;;;;1.75;1.25;;;;;;;13.97;40.26;100300.00;4489733;31;33450;-62
2023/05/09 06:05:13;;;;;;;2.22;1.27;;;;;;;14.51;39.74;100306.44;4481833;31;34687;-65
2023/05/09 06:07:42;;;;;;;1.75;1.27;;;;;;;14.29;40.56;100299.25;4492752;31;33395;-65
2023/05/09 06:10:10;;;;;;;1.45;0.98;;;;;;;13.93;40.55;100309.31;4492353;31;34420;-62
2023/05/09 06:12:38;;;;;;;1.90;1.27;;;;;;;13.99;40.26;100307.94;4494794;31;34044;-63
2023/05/09 06:15:06;;;;;;;2.53;1.58;;;;;;;14.29;40.00;100307.31;4490459;31;34635;-64
2023/05/09 06:17:35;;;;;;;3.17;1.98;;;;;;;13.47;41.36;100310.22;4484642;31;33547;-61
2023/05/09 06:20:03;;;;;;;1.30;0.95;;;;;;;13.21;42.67;100305.97;4478404;31;33623;-63
2023/05/09 06:22:30;;;;;;;2.50;1.65;;;;;;;14.25;40.97;100302.28;4493858;31;33498;-62
2023/05/09 06:24:58;;;;;;;1.25;0.95;;;;;;;14.43;39.69;100306.19;4492425;31;33863;-61
2023/05/09 06:27:25;;;;;;;1.73;1.17;;;;;;;14.15;41.04;100302.19;4488624;31;33305;-64
2023/05/09 06:29:52;;;;;;;6.82;1.65;;;;;;;13.72;40.93;100301.09;4490053;31;33788;-63
2023/05/09 06:32:20;;;;;;;1.83;1.25;;;;;;;14.11;40.75;100301.56;4492784;31;32768;-68
2023/05/09 06:34:48;;;;;;;2.08;1.83;;;;;;;14.18;40.56;100305.47;4492776;31;35033;-61
2023/05/09 06:37:15;;;;;;;4.80;1.92;;;;;;;13.72;41.33;100294.84;4492239;31;32125;-61
2023/05/09 06:39:43;;;;;;;1.00;0.90;;;;;;;14.00;41.03;100298.91;4485786;31;34088;-64
2023/05/09 06:42:10;;;;;;;2.20;1.27;;;;;;;14.48;40.19;100284.25;4492769;31;32686;-64
2023/05/09 06:44:38;;;;;;;1.55;1.02;;;;;;;14.22;40.38;100289.94;4495553;31;34492;-61
2023/05/09 06:47:05;;;;;;;3.58;1.85;;;;;;;13.79;41.50;100292.53;4493264;31;33292;-64
2023/05/09 06:49:33;;;;;;;0.88;0.82;;;;;;;13.76;41.53;100282.88;4490822;31;34861;-62
2023/05/09 06:52:00;;;;;;;3.33;1.40;;;;;;;13.75;41.41;100289.22;4486729;31;33877;-63
2023/05/09 06:54:28;;;;;;;1.45;1.30;;;;;;;13.27;42.63;100284.87;4484430;31;34627;-64
2023/05/09 06:56:55;;;;;;;2.22;1.60;;;;;;;13.84;42.44;100290.34;4484950;31;33254;-63
2023/05/09 06:59:23;;;;;;;0.98;0.88;;;;;;;14.06;41.66;100279.56;4486304;31;34080;-63
2023/05/09 07:01:51;;;;;;;0.85;0.80;;;;;;;13.99;41.50;100281.03;4497540;31;33887;-62
2023/05/09 07:04:18;;;;;;;2.35;1.40;;;;;;;14.37;41.04;100272.53;4493877;31;34081;-64
2023/05/09 07:06:46;;;;;;;2.75;1.35;;;;;;;14.63;40.39;100266.84;4489449;31;33363;-65
2023/05/09 07:09:16;;;;;;;4.15;1.80;;;;;;;14.94;39.74;100275.91;4486583;31;33866;-63
2023/05/09 07:11:44;;;;;;;2.10;1.40;;;;;;;14.96;39.74;100268.56;4487392;31;34592;-63
2023/05/09 07:14:12;;;;;;;3.97;1.50;;;;;;;15.32;39.58;100275.34;4491282;31;33835;-64
2023/05/09 07:16:39;;;;;;;1.85;1.08;;;;;;;15.14;39.58;100274.22;4497306;31;33342;-65
2023/05/09 07:19:07;;;;;;;1.90;1.42;;;;;;;14.61;40.32;100269.69;4488377;31;33867;-66
2023/05/09 07:21:34;;;;;;;1.40;0.93;;;;;;;15.17;39.55;100262.31;4496573;31;32734;-62
2023/05/09 07:24:02;;;;;;;1.25;0.93;;;;;;;15.18;39.40;100262.16;4488926;31;34867;-62
2023/05/09 07:26:30;;;;;;;2.30;1.40;;;;;;;14.75;40.25;100246.97;4494172;31;33221;-64
2023/05/09 07:28:57;;;;;;;0.95;0.60;;;;;;;15.19;39.63;100252.25;4495463;31;32860;-64
2023/05/09 07:31:25;;;;;;;1.02;0.80;;;;;;;15.53;38.01;100259.12;4491503;31;35298;-63
2023/05/09 07:33:52;;;;;;;2.03;1.35;;;;;;;15.60;37.56;100257.63;4493719;31;32631;-61
2023/05/09 07:36:20;;;;;;;1.25;0.85;;;;;;;15.30;38.37;100252.19;4484012;31;33273;-62
2023/05/09 07:38:49;;;;;;;1.05;0.95;;;;;;;15.35;38.21;100253.50;4492460;31;33988;-61
2023/05/09 07:41:17;;;;;;;1.08;0.70;;;;;;;15.18;39.93;100259.47;4483590;31;33955;-62
2023/05/09 07:43:44;;;;;;;1.55;0.95;;;;;;;14.89;39.20;100254.75;4493899;31;34495;-63
2023/05/09 07:46:12;;;;;;;0.50;0.50;;;;;;;15.18;39.19;100248.69;4489366;31;33447;-63
2023/05/09 07:48:39;;;;;;;1.12;0.82;;;;;;;15.55;38.51;100248.22;4492830;31;33698;-64
2023/05/09 07:51:07;;;;;;;2.35;1.58;;;;;;;15.42;38.35;100245.72;4490620;31;35289;-63
2023/05/09 07:53:35;;;;;;;1.42;1.00;;;;;;;15.67;38.40;100244.47;4488019;31;35102;-64
2023/05/09 07:56:05;;;;;;;1.08;0.73;;;;;;;15.82;37.86;100239.53;4494365;31;32152;-65
2023/05/09 07:58:32;;;;;;;1.55;1.23;;;;;;;16.15;38.08;100232.12;4489804;31;32601;-62
2023/05/09 08:01:00;;;;;;;1.65;0.90;;;;;;;15.54;38.86;100233.87;4487772;31;35299;-63
2023/05/09 08:03:28;;;;;;;3.10;1.35;;;;;;;16.12;38.02;100232.41;4489685;31;34739;-65
2023/05/09 08:05:55;;;;;;;3.08;2.10;;;;;;;16.03;38.40;100218.72;4496408;31;34232;-63
2023/05/09 08:08:23;;;;;;;2.05;1.20;;;;;;;15.57;37.86;100219.25;4497424;31;34108;-63
2023/05/09 08:10:51;;;;;;;0.90;0.68;;;;;;;15.82;37.87;100217.94;4483753;31;33641;-66
2023/05/09 08:13:18;;;;;;;2.42;0.88;;;;;;;16.21;37.48;100218.94;4487723;31;34781;-63
2023/05/09 08:15:46;;;;;;;1.37;0.95;;;;;;;16.13;37.49;100223.31;4485538;31;33309;-64
2023/05/09 08:18:13;;;;;;;1.00;0.73;;;;;;;16.39;37.58;100227.19;4495663;31;33730;-65
2023/05/09 08:20:41;;;;;;;7.32;1.23;;;;;;;16.70;36.56;100216.25;4492002;31;34158;-66
2023/05/09 08:23:08;;;;;;;1.17;0.73;;;;;;;16.59;36.73;100208.28;4486519;31;33905;-65
2023/05/09 08:25:36;;;;;;;0.60;0.50;;;;;;;16.39;37.16;100213.66;4495947;31;33321;-66
2023/05/09 08:28:03;;;;;;;1.10;0.95;;;;;;;16.68;36.48;100207.44;4491764;31;33790;-63
2023/05/09 08:30:31;;;;;;;2.12;1.35;;;;;;;16.70;36.43;100208.16;4494965;31;34102;-63
2023/05/09 08:32:59;;;;;;;1.95;0.88;;;;;;;16.52;37.05;100208.84;4490080;31;33766;-65
2023/05/09 08:35:26;;;;;;;0.95;0.73;;;;;;;16.68;37.28;100219.09;4493880;31;33675;-65
2023/05/09 08:37:54;;;;;;;1.48;0.90;;;;;;;16.13;37.65;100217.91;4496697;31;33965;-63
2023/05/09 08:40:21;;;;;;;0.52;0.52;;;;;;;16.76;36.98;100200.34;4497611;31;33930;-62
2023/05/09 08:42:49;;;;;;;1.92;0.80;;;;;;;16.83;36.76;100205.19;4492577;31;32200;-63
2023/05/09 08:45:22;;;;;;;5.40;0.88;;;;;;;16.45;36.74;100202.31;4496650;31;32258;-63
2023/05/09 08:47:50;;;;;;;0.62;0.60;;;;;;;16.90;36.62;100201.75;4495977;31;33834;-63
2023/05/09 08:50:18;;;;;;;0.32;0.32;;;;;;;16.77;36.28;100212.88;4494080;31;34202;-66
2023/05/09 08:52:46;;;;;;;0.47;0.47;;;;;;;17.13;35.81;100199.56;4491416;31;33858;-64
2023/05/09 08:55:14;;;;;;;1.83;0.50;;;;;;;16.99;35.78;100200.03;4495393;31;32234;-61
2023/05/09 08:57:42;;;;;;;0.90;0.75;;;;;;;17.17;35.82;100192.03;4496971;31;33732;-63
2023/05/09 09:00:12;;;;;;;0.60;0.55;;;;;;;17.48;35.19;100197.22;4498013;31;35454;-65
2023/05/09 09:02:42;;;;;;;1.90;0.73;;;;;;;17.41;35.16;100197.78;4494798;31;34346;-63
2023/05/09 09:05:10;;;;;;;0.98;0.50;;;;;;;17.29;35.02;100182.72;4487032;31;31984;-66
2023/05/09 09:07:56;;;;;;;1.00;0.95;;;;;;;17.10;36.09;100189.03;4493141;31;33802;-63
2023/05/09 09:10:26;;;;;;;2.00;1.10;;;;;;;16.81;35.50;100178.28;4492456;31;34992;-66
2023/05/09 09:12:56;;;;;;;2.37;0.73;;;;;;;17.19;35.79;100179.22;4486286;31;32298;-63
2023/05/09 09:15:27;;;;;;;1.90;0.90;;;;;;;17.48;35.06;100176.41;4496398;31;31806;-63
2023/05/09 09:17:58;;;;;;;1.10;0.65;;;;;;;17.06;35.20;100166.00;4485896;31;33489;-66
2023/05/09 09:20:28;;;;;;;2.05;0.88;;;;;;;17.41;36.00;100178.00;4486058;31;34795;-64
2023/05/09 09:22:59;;;;;;;2.00;1.08;;;;;;;17.53;35.12;100178.66;4495527;31;33861;-64
2023/05/09 09:25:27;;;;;;;1.77;0.93;;;;;;;17.53;33.96;100171.41;4496586;31;33130;-64
2023/05/09 09:27:54;;;;;;;2.08;1.05;;;;;;;18.08;34.56;100171.41;4489393;31;34624;-63
2023/05/09 09:30:23;;;;;;;0.62;0.62;;;;;;;18.29;34.19;100168.41;4492509;31;33981;-65
2023/05/09 09:32:51;;;;;;;1.70;0.70;;;;;;;18.20;33.30;100180.16;4484884;31;34265;-64
2023/05/09 09:35:19;;;;;;;1.05;0.68;;;;;;;18.67;32.05;100177.22;4488805;31;33739;-64
2023/05/09 09:37:46;;;;;;;0.98;0.62;;;;;;;18.61;32.38;100167.84;4497412;31;33899;-63
2023/05/09 09:40:15;;;;;;;2.78;0.93;;;;;;;18.83;32.28;100168.41;4488136;31;34161;-62
2023/05/09 09:42:45;;;;;;;2.20;0.95;;;;;;;18.24;33.18;100170.75;4490798;31;33881;-63
2023/05/09 09:45:15;;;;;;;1.45;0.85;;;;;;;18.46;32.88;100161.31;4491250;31;33330;-64
2023/05/09 09:47:44;;;;;;;1.25;0.75;;;;;;;19.02;32.91;100165.50;4497428;31;33780;-63
2023/05/09 09:50:13;;;;;;;3.25;0.62;;;;;;;19.10;31.84;100167.44;4499244;31;34998;-64
2023/05/09 09:52:49;;;;;;;1.92;0.77;;;;;;;19.03;31.52;100153.63;4493779;31;33880;-64
2023/05/09 09:55:17;;;;;;;0.70;0.68;;;;;;;19.00;30.38;100156.66;4486946;31;34506;-64
2023/05/09 09:57:47;;;;;;;1.25;0.40;;;;;;;19.33;29.97;100156.88;4498428;31;34771;-65
2023/05/09 10:00:16;;;;;;;0.43;0.40;;;;;;;19.41;30.32;100158.78;4487860;31;33911;-64
2023/05/09 10:02:54;;;;;;;1.60;0.80;;;;;;;19.21;29.63;100159.03;4484598;31;32934;-65
2023/05/09 10:05:23;;;;;;;1.10;0.52;;;;;;;19.33;29.25;100161.47;4489992;31;33398;-63
2023/05/09 10:07:58;;;;;;;0.80;0.62;;;;;;;19.17;30.24;100148.66;4488707;31;34874;-65
2023/05/09 10:10:27;;;;;;;0.60;0.45;;;;;;;19.37;28.75;100150.13;4495587;31;33923;-62
2023/05/09 10:12:57;;;;;;;1.25;0.50;;;;;;;19.73;29.43;100142.66;4498439;31;34760;-63
2023/05/09 10:15:25;;;;;;;0.85;0.60;;;;;;;20.12;28.87;100146.69;4488246;31;33081;-65
2023/05/09 10:17:56;;;;;;;1.10;0.80;;;;;;;19.50;29.54;100136.94;4490923;31;32657;-66
2023/05/09 10:20:24;;;;;;;1.12;0.62;;;;;;;19.63;29.96;100146.50;4498095;31;34007;-67
2023/05/09 10:22:55;;;;;;;0.98;0.60;;;;;;;19.74;29.69;100149.81;4491178;31;32948;-67
2023/05/09 10:25:35;;;;;;;1.30;0.80;;;;;;;19.57;29.13;100139.84;4496735;31;31900;-69
2023/05/09 10:28:04;;;;;;;2.45;1.08;;;;;;;19.51;30.16;100135.06;4486965;31;33931;-66
2023/05/09 10:30:34;;;;;;;1.85;0.90;;;;;;;19.46;29.89;100137.44;4489864;31;33697;-66
2023/05/09 10:33:06;;;;;;;1.55;0.80;;;;;;;19.96;28.75;100128.47;4496374;31;32980;-68
2023/05/09 10:35:45;;;;;;;1.00;0.65;;;;;;;20.25;28.60;100125.31;4491622;31;32024;-66
2023/05/09 10:38:13;;;;;;;0.40;0.40;;;;;;;20.59;27.94;100133.34;4493709;31;32505;-63
2023/05/09 10:40:41;;;;;;;1.20;0.62;;;;;;;20.76;26.85;100119.75;4489359;31;32763;-65
2023/05/09 10:43:08;;;;;;;0.65;0.52;;;;;;;20.68;27.03;100126.91;4493923;31;33919;-64
2023/05/09 10:45:36;;;;;;;0.82;0.73;;;;;;;20.15;27.14;100130.91;4487904;31;33217;-64
2023/05/09 10:48:05;;;;;;;2.37;0.93;;;;;;;20.73;27.50;100139.97;4492319;31;32426;-67
2023/05/09 10:50:39;;;;;;;1.12;0.75;;;;;;;20.29;28.99;100134.84;4484908;31;32868;-65
2023/05/09 10:53:10;;;;;;;2.15;0.93;;;;;;;20.51;28.71;100122.47;4484664;31;34600;-64
2023/05/09 10:55:46;;;;;;;1.85;0.85;;;;;;;20.88;28.61;100124.66;4497277;31;33169;-65
2023/05/09 10:58:28;;;;;;;1.23;0.70;;;;;;;21.44;27.28;100127.44;4494118;31;34045;-66
2023/05/09 11:00:57;;;;;;;0.95;0.70;;;;;;;19.85;29.26;100135.09;4490851;31;33921;-65
2023/05/09 11:03:26;;;;;;;2.42;0.85;;;;;;;20.39;28.29;100135.53;4495008;31;33612;-63
2023/05/09 11:05:55;;;;;;;2.03;0.90;;;;;;;20.48;28.29;100120.94;4491210;31;34150;-64
2023/05/09 11:08:27;;;;;;;2.45;1.23;;;;;;;20.15;28.88;100128.19;4489783;31;33968;-65
2023/05/09 11:10:59;;;;;;;3.25;0.65;;;;;;;19.74;29.31;100133.53;4484887;32;32867;-65
2023/05/09 11:13:30;;;;;;;1.85;0.77;;;;;;;19.63;29.43;100127.50;4489986;31;34055;-66
2023/05/09 11:16:01;;;;;;;2.08;1.00;;;;;;;20.43;27.92;100114.28;4492330;31;34859;-65
2023/05/09 11:18:30;;;;;;;2.20;1.02;;;;;;;20.47;28.99;100115.63;4495471;31;34732;-66
2023/05/09 11:20:58;;;;;;;1.40;0.75;;;;;;;20.64;28.32;100108.34;4491968;31;35672;-65
2023/05/09 11:23:26;;;;;;;1.92;1.08;;;;;;;20.30;28.95;100101.19;4488318;31;33776;-65
2023/05/09 11:26:03;;;;;;;1.08;0.90;;;;;;;19.93;29.25;100104.34;4496092;31;34249;-68
2023/05/09 11:28:36;;;;;;;1.20;0.75;;;;;;;20.13;28.99;100105.78;4487513;31;33888;-66
2023/05/09 11:31:17;;;;;;;2.50;1.73;;;;;;;19.91;29.27;100093.69;4486322;31;33722;-66
2023/05/09 11:33:53;;;;;;;2.28;1.55;;;;;;;20.37;28.18;100096.78;4487921;31;33797;-66